Time;durP1;ratioP1;P1;durP2;ratioP2;P2;SDS_P1;SDS_P2;PMS_P1;PMS_P2;Temp;Humidity;BMP_temperature;BMP_pressure;BME280_temperature;BME280_humidity;BME280_pressure;Samples;Min_cycle;Max_cycle;Signal;HPM_P1;HPM_P2
2022/05/05 00:01:32;;;;;;;2.47;2.28;;;;;;;6.82;100.00;91198.66;5033596;28;20035;-66
2022/05/05 00:03:59;;;;;;;2.00;1.80;;;;;;;6.69;100.00;91191.38;5033760;28;20052;-66
2022/05/05 00:06:25;;;;;;;2.53;2.30;;;;;;;6.65;100.00;91210.72;5035977;28;20166;-67
2022/05/05 00:08:51;;;;;;;2.85;2.25;;;;;;;6.56;100.00;91197.31;5038710;28;20549;-67
2022/05/05 00:16:45;;;;;;;2.65;1.92;;;;;;;6.55;100.00;91208.94;5033427;28;20152;-66
2022/05/05 00:19:10;;;;;;;1.63;1.52;;;;;;;6.61;100.00;91205.19;5033496;28;20533;-67
2022/05/05 00:21:40;;;;;;;1.63;1.52;;;;;;;6.63;100.00;91200.44;5033115;28;20041;-66
2022/05/05 00:24:06;;;;;;;3.28;1.85;;;;;;;6.61;100.00;91195.41;5033069;28;20559;-66
2022/05/05 00:26:32;;;;;;;2.10;1.88;;;;;;;6.69;100.00;91196.66;5033070;28;20034;-66
2022/05/05 00:28:58;;;;;;;4.55;2.75;;;;;;;6.72;100.00;91203.25;5033077;28;20068;-66
2022/05/05 00:31:23;;;;;;;3.47;2.13;;;;;;;6.69;100.00;91207.25;5032839;28;20400;-66
2022/05/05 00:33:49;;;;;;;1.60;1.50;;;;;;;6.70;100.00;91200.88;5032972;28;20400;-66
2022/05/05 00:36:15;;;;;;;1.73;1.63;;;;;;;6.70;100.00;91206.19;5032896;28;20099;-67
2022/05/05 00:38:40;;;;;;;1.90;1.70;;;;;;;6.65;100.00;91208.88;5032848;28;20048;-66
2022/05/05 00:41:06;;;;;;;2.15;1.75;;;;;;;6.62;100.00;91198.84;5032809;28;20116;-66
2022/05/05 00:43:33;;;;;;;1.92;1.83;;;;;;;6.52;100.00;91193.66;5032765;28;20030;-67
2022/05/05 00:45:59;;;;;;;2.33;2.00;;;;;;;6.50;100.00;91199.22;5032805;28;20608;-67
2022/05/05 00:48:28;;;;;;;1.70;1.60;;;;;;;6.48;100.00;91204.00;5032611;28;20176;-67
2022/05/05 00:50:54;;;;;;;1.60;1.50;;;;;;;6.50;100.00;91201.84;5032498;28;20484;-67
2022/05/05 00:53:20;;;;;;;1.52;1.42;;;;;;;6.50;100.00;91203.72;5032582;28;20115;-66
2022/05/05 00:55:48;;;;;;;2.35;1.83;;;;;;;6.50;100.00;91203.72;5032540;28;20108;-67
2022/05/05 00:58:14;;;;;;;2.45;2.10;;;;;;;6.45;100.00;91199.22;5014736;28;20041;-66
2022/05/05 01:00:40;;;;;;;1.80;1.70;;;;;;;6.44;100.00;91210.09;5032377;28;20495;-67
2022/05/05 01:03:09;;;;;;;1.88;1.75;;;;;;;6.35;100.00;91206.47;5032434;28;20045;-66
2022/05/05 01:05:40;;;;;;;2.42;2.22;;;;;;;6.27;100.00;91211.25;5032349;28;20033;-66
2022/05/05 01:08:05;;;;;;;1.77;1.65;;;;;;;6.27;100.00;91213.13;5032244;28;20563;-66
2022/05/05 01:10:32;;;;;;;2.22;2.00;;;;;;;6.18;100.00;91199.72;5032139;28;20112;-66
2022/05/05 01:12:58;;;;;;;1.80;1.60;;;;;;;6.19;100.00;91208.44;5032269;28;20037;-66
2022/05/05 01:15:24;;;;;;;1.30;1.20;;;;;;;6.15;100.00;91202.09;5032225;28;20606;-66
2022/05/05 01:17:49;;;;;;;2.13;1.92;;;;;;;6.15;100.00;91204.75;5032208;28;20107;-66
2022/05/05 01:20:18;;;;;;;2.10;1.90;;;;;;;6.20;100.00;91207.38;5014275;28;20458;-66
2022/05/05 01:22:44;;;;;;;1.85;1.60;;;;;;;6.06;100.00;91187.91;5014197;28;20029;-66
2022/05/05 01:28:12;;;;;;;1.75;1.65;;;;;;;6.08;100.00;91217.47;5032007;28;20056;-66
2022/05/05 01:30:46;;;;;;;2.20;1.85;;;;;;;5.97;100.00;91224.66;5014043;28;20475;-66
2022/05/05 01:33:16;;;;;;;3.03;2.15;;;;;;;5.89;100.00;91217.28;5031848;28;20411;-66
2022/05/05 01:35:43;;;;;;;19.73;8.82;;;;;;;5.89;100.00;91219.94;5031844;28;20056;-66
2022/05/05 01:38:12;;;;;;;8.75;3.15;;;;;;;5.89;100.00;91217.28;5014066;28;20411;-66
2022/05/05 01:40:39;;;;;;;3.22;2.17;;;;;;;5.80;100.00;91213.63;5031476;28;20029;-66
2022/05/05 01:43:08;;;;;;;1.80;1.48;;;;;;;5.79;100.00;91212.06;5031593;28;20518;-66
2022/05/05 01:45:34;;;;;;;2.10;1.65;;;;;;;5.69;100.00;91215.56;5031618;28;20513;-67
2022/05/05 01:48:00;;;;;;;1.48;1.38;;;;;;;5.65;100.00;91219.78;5031635;28;20029;-66
2022/05/05 01:50:26;;;;;;;1.70;1.40;;;;;;;5.56;100.00;91213.50;5031426;28;20033;-67
2022/05/05 01:52:53;;;;;;;2.28;1.90;;;;;;;5.51;100.00;91211.66;5013858;28;20411;-66
2022/05/05 01:55:19;;;;;;;2.50;1.80;;;;;;;5.37;100.00;91219.38;5031463;28;20047;-66
2022/05/05 01:57:45;;;;;;;1.60;1.50;;;;;;;5.33;100.00;91214.91;5031485;28;20029;-67
2022/05/05 02:00:11;;;;;;;1.55;1.45;;;;;;;5.27;100.00;91229.16;5031405;28;20407;-67
2022/05/05 02:02:37;;;;;;;1.98;1.88;;;;;;;5.21;100.00;91217.84;5031268;28;20029;-66
2022/05/05 02:05:03;;;;;;;2.13;1.63;;;;;;;5.30;100.00;91228.63;5013869;28;20060;-67
2022/05/05 02:07:28;;;;;;;1.95;1.75;;;;;;;5.37;100.00;91229.16;5031365;28;20057;-67
2022/05/05 02:09:54;;;;;;;2.00;1.83;;;;;;;5.37;100.00;91229.94;5031246;28;20561;-66
2022/05/05 02:12:19;;;;;;;2.42;1.80;;;;;;;5.39;100.00;91224.38;5031338;28;20032;-66
2022/05/05 02:14:45;;;;;;;1.60;1.50;;;;;;;5.40;100.00;91223.31;5031277;28;20560;-66
2022/05/05 02:17:11;;;;;;;1.70;1.60;;;;;;;5.37;100.00;91229.16;5031161;28;20036;-66
2022/05/05 02:19:36;;;;;;;2.88;1.83;;;;;;;5.29;100.00;91216.50;5031173;28;20033;-66
2022/05/05 02:22:02;;;;;;;2.30;2.10;;;;;;;5.32;100.00;91218.59;5031139;28;20021;-67
2022/05/05 02:24:30;;;;;;;2.00;1.80;;;;;;;5.31;100.00;91227.56;5031243;28;20490;-66
2022/05/05 02:26:56;;;;;;;1.88;1.77;;;;;;;5.29;100.00;91234.97;5037409;28;20045;-67
2022/05/05 02:29:21;;;;;;;3.10;1.50;;;;;;;5.24;100.00;91232.34;5035680;28;20029;-66
2022/05/05 02:31:47;;;;;;;1.58;1.40;;;;;;;5.17;100.00;91234.47;5031148;28;20088;-66
2022/05/05 02:34:12;;;;;;;2.50;2.00;;;;;;;5.10;100.00;91237.41;5031124;28;20484;-66
2022/05/05 02:39:22;;;;;;;2.65;2.00;;;;;;;5.04;100.00;91241.88;5035228;28;20045;-66
2022/05/05 02:41:48;;;;;;;17.33;9.50;;;;;;;5.00;100.00;91242.69;5034970;28;20033;-66
2022/05/05 02:44:14;;;;;;;4.22;2.38;;;;;;;5.09;100.00;91236.59;5035065;28;20518;-66
2022/05/05 02:46:39;;;;;;;2.17;1.98;;;;;;;4.99;100.00;91231.34;5035002;28;20114;-66
2022/05/05 02:49:05;;;;;;;2.85;2.17;;;;;;;4.92;100.00;91227.41;5034868;28;20018;-68
2022/05/05 02:51:30;;;;;;;4.22;2.22;;;;;;;4.92;100.00;91230.84;5034958;28;20476;-66
2022/05/05 02:56:40;;;;;;;2.60;2.40;;;;;;;5.03;100.00;91227.09;5034788;28;20087;-66
2022/05/05 02:59:05;;;;;;;3.10;2.00;;;;;;;5.14;100.00;91233.16;5034638;28;20017;-67
2022/05/05 03:01:30;;;;;;;4.03;3.03;;;;;;;5.28;100.00;91236.03;5034924;28;20026;-66
2022/05/05 03:03:56;;;;;;;2.10;1.83;;;;;;;5.36;100.00;91241.53;5034712;28;20503;-66
2022/05/05 03:06:21;;;;;;;3.00;1.85;;;;;;;5.46;100.00;91245.97;5034437;28;20029;-66
2022/05/05 03:08:47;;;;;;;2.05;1.75;;;;;;;5.43;100.00;91241.25;5016778;28;20033;-66
2022/05/05 03:11:12;;;;;;;3.55;2.20;;;;;;;5.43;100.00;91248.38;5034510;28;20028;-67
2022/05/05 03:13:38;;;;;;;2.35;2.00;;;;;;;5.43;100.00;91245.75;5034535;28;20119;-66
2022/05/05 03:16:04;;;;;;;2.10;1.90;;;;;;;5.43;100.00;91256.28;5034379;28;20039;-66
2022/05/05 03:18:30;;;;;;;1.83;1.73;;;;;;;5.38;100.00;91254.47;5034334;28;20032;-66
2022/05/05 03:20:55;;;;;;;3.65;2.05;;;;;;;5.34;100.00;91256.84;5034243;28;20021;-66
2022/05/05 03:23:21;;;;;;;3.95;2.90;;;;;;;5.34;100.00;91253.41;5034313;28;20029;-66
2022/05/05 03:25:46;;;;;;;3.67;2.45;;;;;;;5.30;100.00;91262.91;5034336;28;20033;-66
2022/05/05 03:28:13;;;;;;;3.67;2.28;;;;;;;5.31;100.00;91267.13;5034078;28;20103;-66
2022/05/05 03:30:39;;;;;;;2.80;2.45;;;;;;;5.28;100.00;91254.50;5034208;28;20025;-67
2022/05/05 03:33:05;;;;;;;2.00;1.80;;;;;;;5.41;100.00;91264.47;5034276;28;20022;-66
2022/05/05 03:35:30;;;;;;;2.00;1.90;;;;;;;5.43;100.00;91264.22;5034170;28;20493;-66
2022/05/05 03:37:56;;;;;;;3.72;1.90;;;;;;;5.40;100.00;91268.19;5034087;28;20033;-66
2022/05/05 03:40:21;;;;;;;1.75;1.65;;;;;;;5.44;100.00;91276.34;5016159;28;20033;-66
2022/05/05 03:42:47;;;;;;;2.00;1.80;;;;;;;5.42;100.00;91273.97;5020666;28;20034;-67
2022/05/05 03:45:12;;;;;;;3.88;2.60;;;;;;;5.29;100.00;91277.16;5013921;28;20084;-66
2022/05/05 03:47:38;;;;;;;3.35;2.40;;;;;;;5.26;100.00;91272.44;5013722;28;20488;-66
2022/05/05 03:50:03;;;;;;;2.22;2.00;;;;;;;5.19;100.00;91270.06;5013545;28;20041;-66
2022/05/05 03:52:29;;;;;;;2.85;2.40;;;;;;;5.28;100.00;91276.38;5013353;28;20021;-66
2022/05/05 03:54:54;;;;;;;2.20;2.00;;;;;;;5.40;100.00;91281.38;5013806;28;20480;-66
2022/05/05 03:57:20;;;;;;;1.55;1.42;;;;;;;5.50;100.00;91277.91;5013789;28;20033;-65
2022/05/05 03:59:45;;;;;;;1.90;1.70;;;;;;;5.48;100.00;91270.25;5013620;28;20056;-66
2022/05/05 04:02:10;;;;;;;1.98;1.70;;;;;;;5.63;100.00;91272.84;5013664;28;20084;-65
2022/05/05 04:04:36;;;;;;;2.72;2.25;;;;;;;5.81;100.00;91283.84;5013489;28;20034;-66
2022/05/05 04:07:01;;;;;;;1.90;1.52;;;;;;;5.85;100.00;91277.00;5013248;28;20081;-69
2022/05/05 04:09:27;;;;;;;1.75;1.65;;;;;;;5.91;100.00;91278.56;5013584;28;20539;-66
2022/05/05 04:11:52;;;;;;;2.53;1.88;;;;;;;5.93;100.00;91264.03;5013401;28;20030;-65
2022/05/05 04:14:18;;;;;;;2.63;2.08;;;;;;;6.09;100.00;91275.31;4995753;28;20029;-66
2022/05/05 04:16:43;;;;;;;2.97;2.17;;;;;;;6.17;100.00;91273.94;5013350;28;20041;-66
2022/05/05 04:19:09;;;;;;;1.75;1.65;;;;;;;6.20;100.00;91281.31;5013480;28;20053;-66
2022/05/05 04:21:34;;;;;;;1.80;1.70;;;;;;;6.27;100.00;91277.31;5013426;28;20172;-67
2022/05/05 04:24:00;;;;;;;2.00;1.80;;;;;;;6.36;100.00;91288.09;5013470;28;20105;-66
2022/05/05 04:26:27;;;;;;;3.00;1.95;;;;;;;6.48;100.00;91285.13;5013189;28;20077;-66
2022/05/05 04:28:56;;;;;;;3.13;2.35;;;;;;;6.55;100.00;91289.03;4995605;28;20025;-67
2022/05/05 04:31:22;;;;;;;2.20;2.00;;;;;;;6.68;100.00;91292.13;5013325;28;20029;-67
2022/05/05 04:33:48;;;;;;;3.35;2.15;;;;;;;6.86;100.00;91305.47;5013134;28;20025;-67
2022/05/05 04:36:14;;;;;;;2.25;2.05;;;;;;;6.98;100.00;91291.09;5013088;28;20040;-67
2022/05/05 04:38:39;;;;;;;2.10;1.90;;;;;;;7.18;100.00;91290.91;5012993;28;20026;-68
2022/05/05 04:41:05;;;;;;;2.70;2.25;;;;;;;7.24;100.00;91305.66;5023500;28;20060;-67
2022/05/05 04:43:31;;;;;;;2.92;2.28;;;;;;;7.45;100.00;91295.69;5018235;28;20041;-67
2022/05/05 04:45:57;;;;;;;2.65;2.45;;;;;;;7.53;100.00;91287.13;5021546;28;20037;-67
2022/05/05 04:48:23;;;;;;;3.05;2.30;;;;;;;7.74;100.00;91299.09;5022054;28;20030;-67
2022/05/05 04:50:48;;;;;;;3.17;2.70;;;;;;;7.95;100.00;91293.56;5013925;28;20556;-67
2022/05/05 04:53:14;;;;;;;6.43;2.80;;;;;;;8.17;100.00;91293.00;5012768;28;20151;-66
2022/05/05 04:55:39;;;;;;;2.55;2.20;;;;;;;8.36;100.00;91292.00;5012913;28;20496;-66
2022/05/05 04:58:05;;;;;;;3.55;3.20;;;;;;;8.51;100.00;91296.28;5012829;28;20109;-66
2022/05/05 05:00:31;;;;;;;3.92;2.60;;;;;;;8.70;100.00;91296.31;5012484;28;20022;-66
2022/05/05 05:02:57;;;;;;;2.95;2.40;;;;;;;8.75;100.00;91288.28;5012632;28;20076;-66
2022/05/05 05:05:22;;;;;;;2.03;1.85;;;;;;;10.56;100.00;91294.31;5012616;28;20599;-66
2022/05/05 05:07:48;;;;;;;3.13;2.30;;;;;;;14.79;88.34;91289.75;5012633;28;20038;-66
2022/05/05 05:10:13;;;;;;;4.07;3.40;;;;;;;17.74;64.37;91295.25;5012377;28;20104;-67
2022/05/05 05:12:39;;;;;;;15.55;6.82;;;;;;;18.68;60.31;91306.19;5012552;28;20805;-66
2022/05/05 05:15:05;;;;;;;23.42;11.80;;;;;;;19.95;56.41;91304.75;5012704;28;20061;-67
2022/05/05 05:17:31;;;;;;;20.08;10.18;;;;;;;21.73;52.37;91304.19;5012176;28;20030;-67
2022/05/05 05:19:56;;;;;;;13.57;9.57;;;;;;;21.35;51.06;91307.94;5012169;28;20559;-67
2022/05/05 05:22:22;;;;;;;10.63;5.72;;;;;;;21.82;50.69;91302.75;5012170;28;20030;-67
2022/05/05 05:24:47;;;;;;;6.07;4.38;;;;;;;21.79;50.81;91302.72;5012300;28;20018;-67
2022/05/05 05:27:13;;;;;;;6.20;4.47;;;;;;;22.53;49.09;91307.44;5012157;28;20176;-68
2022/05/05 05:29:38;;;;;;;3.88;3.22;;;;;;;23.17;47.35;91310.72;5012186;28;20026;-67
2022/05/05 05:32:04;;;;;;;3.53;2.20;;;;;;;24.87;41.60;91302.59;5012142;28;20118;-68
2022/05/05 05:34:30;;;;;;;1.65;1.55;;;;;;;25.91;38.60;91311.53;4994538;28;20040;-67
2022/05/05 05:36:55;;;;;;;1.85;1.70;;;;;;;27.04;37.37;91313.00;5012088;28;20029;-67
2022/05/05 05:39:21;;;;;;;2.08;1.85;;;;;;;28.15;35.63;91315.56;5011935;28;20041;-68
2022/05/05 05:41:46;;;;;;;3.05;2.20;;;;;;;28.61;34.60;91315.03;5011701;28;20107;-68
2022/05/05 05:44:12;;;;;;;4.45;3.25;;;;;;;28.56;34.14;91309.22;5012047;28;20396;-68
2022/05/05 05:46:38;;;;;;;5.35;3.28;;;;;;;29.20;33.91;91311.91;5011933;28;20034;-68
2022/05/05 05:49:05;;;;;;;2.88;2.30;;;;;;;29.60;33.03;91314.03;5011820;28;20037;-68
2022/05/05 05:51:31;;;;;;;9.70;6.35;;;;;;;29.82;33.18;91312.47;5011921;28;20033;-68
2022/05/05 05:53:57;;;;;;;10.63;6.88;;;;;;;29.90;32.81;91307.66;5011794;28;20084;-68
2022/05/05 05:56:22;;;;;;;5.35;3.28;;;;;;;30.79;32.73;91314.22;5011831;28;20037;-67
2022/05/05 05:58:48;;;;;;;1.63;1.50;;;;;;;32.07;29.37;91316.78;5011459;28;20076;-66
2022/05/05 06:01:13;;;;;;;1.45;1.35;;;;;;;33.04;28.22;91305.44;5011642;28;20033;-67
2022/05/05 06:03:53;;;;;;;1.92;1.70;;;;;;;31.72;29.92;91319.19;5011395;28;20551;-66
2022/05/05 06:06:22;;;;;;;1.75;1.52;;;;;;;33.15;28.25;91315.38;5011646;28;20109;-67
2022/05/05 06:08:49;;;;;;;2.35;1.52;;;;;;;34.22;26.95;91312.75;5011328;28;20033;-67
2022/05/05 06:11:17;;;;;;;2.60;2.38;;;;;;;34.26;27.78;91318.19;5010682;28;20029;-67
2022/05/05 06:13:43;;;;;;;2.42;2.22;;;;;;;34.47;27.43;91326.53;5011474;28;20028;-67
2022/05/05 06:16:11;;;;;;;7.65;2.22;;;;;;;33.70;27.57;91327.88;5011452;28;20080;-66
2022/05/05 06:18:38;;;;;;;5.55;2.30;;;;;;;32.38;29.32;91315.19;5011470;28;20030;-67
2022/05/05 06:21:03;;;;;;;4.38;3.33;;;;;;;31.82;29.93;91323.66;5011594;28;20057;-66
2022/05/05 06:23:29;;;;;;;2.95;2.55;;;;;;;33.15;29.28;91318.91;5011474;28;20471;-67
2022/05/05 06:25:54;;;;;;;4.70;2.67;;;;;;;32.33;29.99;91312.94;5011369;28;20022;-67
2022/05/05 06:28:20;;;;;;;2.35;2.08;;;;;;;33.72;28.13;91319.91;5011287;28;20049;-67
2022/05/05 06:30:45;;;;;;;2.00;1.60;;;;;;;34.14;27.41;91328.03;5011225;28;20029;-67
2022/05/05 06:33:10;;;;;;;3.58;2.35;;;;;;;33.05;27.48;91322.75;5011100;28;20041;-66
2022/05/05 06:35:36;;;;;;;2.08;1.80;;;;;;;33.67;26.56;91320.47;5011241;28;20048;-66
2022/05/05 06:38:02;;;;;;;3.05;2.30;;;;;;;34.32;27.33;91330.19;5011335;28;20033;-67
2022/05/05 06:40:28;;;;;;;2.88;1.85;;;;;;;34.07;27.62;91325.50;5011014;28;20036;-67
2022/05/05 06:42:53;;;;;;;3.97;2.10;;;;;;;33.16;28.05;91327.97;5011230;28;20034;-67
2022/05/05 06:45:19;;;;;;;3.20;2.13;;;;;;;33.25;28.48;91328.84;5011108;28;20017;-67
2022/05/05 06:47:44;;;;;;;4.15;1.80;;;;;;;34.48;26.20;91328.06;5011198;28;20029;-68
2022/05/05 06:50:11;;;;;;;3.67;2.35;;;;;;;34.29;26.95;91320.03;4993522;28;20026;-69
2022/05/05 06:52:36;;;;;;;6.25;4.40;;;;;;;33.89;27.23;91328.84;4989897;28;20034;-67
2022/05/05 06:55:03;;;;;;;7.43;4.78;;;;;;;31.49;29.32;91314.63;5010857;28;20038;-68
2022/05/05 06:57:29;;;;;;;7.78;2.30;;;;;;;31.37;30.47;91322.75;5010601;28;20030;-66
2022/05/05 06:59:54;;;;;;;4.32;2.95;;;;;;;29.94;31.64;91314.63;5010747;28;20032;-66
2022/05/05 07:02:20;;;;;;;6.95;2.70;;;;;;;31.06;30.34;91314.78;5011155;28;20112;-66
2022/05/05 07:07:29;;;;;;;29.75;15.68;;;;;;;34.39;27.57;91327.97;5010892;28;20487;-67
2022/05/05 07:12:39;;;;;;;3.28;2.40;;;;;;;30.56;30.18;91324.06;5017446;28;20087;-65
2022/05/05 07:15:06;;;;;;;2.42;2.20;;;;;;;31.68;30.11;91323.97;5030291;28;20029;-65
2022/05/05 07:17:32;;;;;;;3.88;2.15;;;;;;;31.77;29.19;91315.94;5030529;28;20035;-65
2022/05/05 07:19:58;;;;;;;2.28;1.80;;;;;;;30.90;30.51;91325.75;5030224;28;20025;-66
2022/05/05 07:22:24;;;;;;;3.30;1.95;;;;;;;31.59;28.96;91321.84;5031540;28;20061;-66
2022/05/05 07:24:49;;;;;;;2.13;1.90;;;;;;;31.57;27.26;91318.75;5034044;28;20064;-65
2022/05/05 07:27:15;;;;;;;2.58;2.13;;;;;;;32.13;27.70;91326.03;5033459;28;20182;-65
2022/05/05 07:29:41;;;;;;;2.55;2.20;;;;;;;32.24;27.54;91323.00;5034012;28;20034;-65
2022/05/05 07:32:08;;;;;;;2.88;2.50;;;;;;;32.35;27.79;91321.56;5033940;28;20017;-65
2022/05/05 07:34:34;;;;;;;2.40;2.20;;;;;;;31.42;29.42;91328.56;5033789;28;20079;-64
2022/05/05 07:37:03;;;;;;;3.80;2.10;;;;;;;31.20;29.44;91324.72;5033979;28;20041;-65
2022/05/05 07:39:28;;;;;;;2.47;2.10;;;;;;;31.96;27.90;91330.03;5033824;28;20025;-65
2022/05/05 07:41:54;;;;;;;2.17;1.90;;;;;;;31.34;27.47;91326.38;5033269;28;20168;-64
2022/05/05 07:44:19;;;;;;;2.63;2.42;;;;;;;31.86;27.28;91323.56;5033765;28;20482;-65
2022/05/05 07:46:45;;;;;;;2.67;1.92;;;;;;;31.32;27.39;91323.28;5033791;28;20032;-65
2022/05/05 07:49:11;;;;;;;4.43;2.00;;;;;;;28.92;32.20;91318.56;5033879;28;20017;-64
2022/05/05 07:51:36;;;;;;;5.63;2.00;;;;;;;27.83;30.85;91320.59;5034114;28;20411;-64
2022/05/05 07:56:46;;;;;;;2.15;1.73;;;;;;;30.49;30.44;91332.44;5033474;28;20105;-65
2022/05/05 07:59:12;;;;;;;5.13;1.90;;;;;;;29.07;30.20;91332.06;5033384;28;20049;-65
2022/05/05 08:01:38;;;;;;;2.22;1.48;;;;;;;28.92;30.00;91337.75;5033488;28;20411;-64
2022/05/05 08:04:05;;;;;;;4.53;2.20;;;;;;;28.29;30.10;91334.59;5033359;28;20021;-66
2022/05/05 08:06:33;;;;;;;3.33;2.30;;;;;;;29.13;30.13;91341.34;5033490;28;20410;-65
2022/05/05 08:08:58;;;;;;;19.73;11.32;;;;;;;28.50;30.83;91338.25;5033196;28;20034;-66
2022/05/05 08:11:24;;;;;;;2.78;1.90;;;;;;;28.01;33.30;91346.56;5032637;28;20028;-61
2022/05/05 08:13:50;;;;;;;3.70;2.40;;;;;;;31.36;30.67;91345.97;5033269;28;20029;-62
2022/05/05 08:16:16;;;;;;;1.42;1.33;;;;;;;29.56;29.16;91346.22;5033016;28;20030;-62
2022/05/05 08:18:42;;;;;;;2.28;1.38;;;;;;;29.07;29.37;91345.75;5032789;28;20029;-62
2022/05/05 08:21:11;;;;;;;1.88;1.67;;;;;;;27.33;32.58;91353.78;5033306;28;20029;-63
2022/05/05 08:23:37;;;;;;;1.85;1.60;;;;;;;27.50;32.68;91355.59;5033096;28;20022;-63
2022/05/05 08:28:47;;;;;;;3.90;2.72;;;;;;;31.02;30.40;91352.56;5032987;28;20047;-63
2022/05/05 08:31:13;;;;;;;7.13;2.00;;;;;;;31.36;29.29;91345.97;5032877;28;20018;-63
2022/05/05 08:33:39;;;;;;;4.50;3.30;;;;;;;30.18;30.59;91355.78;5031204;28;20017;-65
2022/05/05 08:36:06;;;;;;;3.88;1.70;;;;;;;31.71;29.10;91350.63;5032548;28;20133;-66
2022/05/05 08:38:32;;;;;;;6.55;4.07;;;;;;;32.91;28.34;91347.97;5032606;28;20056;-66
2022/05/05 08:40:58;;;;;;;23.67;15.80;;;;;;;30.30;30.32;91342.22;5032770;28;20136;-65
2022/05/05 08:43:23;;;;;;;5.95;4.00;;;;;;;28.87;32.00;91345.63;5014925;28;20029;-65
2022/05/05 08:45:50;;;;;;;5.53;3.33;;;;;;;27.80;33.73;91356.94;5032792;28;20025;-65
2022/05/05 08:48:16;;;;;;;3.00;2.55;;;;;;;29.31;31.54;91350.09;5032771;28;20097;-65
2022/05/05 08:50:46;;;;;;;1.60;1.50;;;;;;;28.05;31.29;91346.53;5032670;28;20021;-65
2022/05/05 08:53:15;;;;;;;3.15;2.00;;;;;;;29.15;30.41;91355.41;5032707;28;20151;-65
2022/05/05 08:55:43;;;;;;;3.40;1.63;;;;;;;28.87;30.27;91362.81;5032686;28;20104;-65
2022/05/05 08:58:09;;;;;;;2.65;1.60;;;;;;;29.56;30.10;91355.22;5032617;28;20503;-65
2022/05/05 09:00:34;;;;;;;2.30;1.30;;;;;;;32.31;28.51;91358.63;5032387;28;20033;-65
2022/05/05 09:03:00;;;;;;;4.72;2.70;;;;;;;32.41;29.07;91363.88;5032403;28;20022;-65
2022/05/05 09:05:44;;;;;;;3.00;2.00;;;;;;;29.61;30.47;91353.97;5032502;28;20431;-65
2022/05/05 09:08:25;;;;;;;3.67;1.98;;;;;;;29.51;28.79;91359.22;5032397;28;20025;-65
2022/05/05 09:10:51;;;;;;;1.80;1.70;;;;;;;31.13;28.93;91353.13;5032225;28;20056;-65
2022/05/05 09:13:29;;;;;;;3.40;1.65;;;;;;;31.77;28.94;91348.19;5032239;28;20407;-65
2022/05/05 09:15:55;;;;;;;2.15;1.80;;;;;;;34.41;25.80;91360.69;5032150;28;20466;-65
2022/05/05 09:18:25;;;;;;;5.13;4.15;;;;;;;30.95;29.07;91358.22;5032218;28;20025;-65
2022/05/05 09:20:51;;;;;;;4.45;3.10;;;;;;;25.97;33.91;91346.19;5032170;28;20033;-67
2022/05/05 09:23:34;;;;;;;7.05;3.72;;;;;;;25.32;35.08;91346.63;5032025;28;20025;-65
2022/05/05 09:26:01;;;;;;;2.50;2.17;;;;;;;29.02;32.77;91349.72;5031994;28;20017;-65
2022/05/05 09:28:31;;;;;;;7.82;2.05;;;;;;;30.96;29.20;91348.78;5021552;28;20053;-64
2022/05/05 09:31:04;;;;;;;1.88;1.67;;;;;;;30.65;29.26;91338.03;5012030;28;20033;-65
2022/05/05 09:33:41;;;;;;;1.60;1.50;;;;;;;30.73;28.67;91332.38;5011645;28;20025;-64
2022/05/05 09:36:14;;;;;;;1.63;1.52;;;;;;;29.86;30.59;91337.13;5012131;28;20026;-65
2022/05/05 09:38:56;;;;;;;7.45;1.95;;;;;;;28.51;31.94;91337.06;5011852;28;20112;-64
2022/05/05 09:41:22;;;;;;;2.05;1.77;;;;;;;29.66;31.81;91334.28;5011866;28;20025;-64
2022/05/05 09:43:48;;;;;;;1.55;1.45;;;;;;;28.32;31.39;91331.03;5011787;28;20495;-65
2022/05/05 09:46:23;;;;;;;3.28;1.50;;;;;;;29.16;30.85;91341.31;5011604;28;20057;-65
2022/05/05 09:48:49;;;;;;;3.80;1.90;;;;;;;30.61;29.00;91331.81;4993657;28;20033;-65
2022/05/05 09:51:15;;;;;;;1.77;1.67;;;;;;;28.54;31.88;91330.75;5011595;28;20034;-64
2022/05/05 09:59:17;;;;;;;2.80;2.22;;;;;;;26.60;33.91;91331.97;5011279;28;20064;-63
2022/05/05 10:01:48;;;;;;;3.97;3.30;;;;;;;26.93;32.78;91339.56;5011221;28;20050;-63
2022/05/05 10:04:14;;;;;;;3.92;3.28;;;;;;;27.95;31.70;91325.56;5011702;28;20033;-63
2022/05/05 10:06:42;;;;;;;3.75;3.45;;;;;;;27.53;32.51;91330.19;5011487;28;20026;-63
2022/05/05 10:09:12;;;;;;;2.78;1.98;;;;;;;28.10;30.97;91324.22;5011361;28;20025;-64
2022/05/05 10:11:39;;;;;;;4.25;2.10;;;;;;;27.29;31.46;91322.97;5011412;28;20073;-63
2022/05/05 10:14:07;;;;;;;1.55;1.42;;;;;;;27.85;30.78;91321.72;5011576;28;20029;-64
2022/05/05 10:16:32;;;;;;;6.00;3.80;;;;;;;25.43;31.99;91325.63;5010952;28;20100;-64
2022/05/05 10:18:59;;;;;;;5.65;1.65;;;;;;;26.68;30.75;91325.31;5011192;28;20105;-63
2022/05/05 10:21:27;;;;;;;1.80;1.65;;;;;;;26.78;31.34;91335.38;5011244;28;20562;-63
2022/05/05 10:24:05;;;;;;;1.58;1.48;;;;;;;27.98;31.93;91325.50;5011129;28;20026;-64
2022/05/05 10:26:31;;;;;;;1.63;1.52;;;;;;;26.64;31.06;91329.97;5011039;28;20531;-63
2022/05/05 10:28:57;;;;;;;1.73;1.60;;;;;;;26.92;31.26;91329.81;5011112;28;20025;-63
2022/05/05 10:31:37;;;;;;;2.00;1.40;;;;;;;26.34;32.00;91335.94;5010660;28;20577;-63
2022/05/05 10:34:07;;;;;;;3.13;1.60;;;;;;;27.51;29.62;91323.59;5010989;28;20026;-63
2022/05/05 10:36:34;;;;;;;2.42;2.08;;;;;;;28.89;29.11;91329.56;4993490;28;20423;-64
2022/05/05 10:39:16;;;;;;;4.20;1.50;;;;;;;27.79;30.86;91326.09;5010951;28;20096;-64
2022/05/05 10:41:42;;;;;;;3.03;2.40;;;;;;;28.72;29.32;91334.06;5010910;28;20113;-64
2022/05/05 10:44:19;;;;;;;1.42;1.33;;;;;;;27.41;28.83;91334.19;5010941;28;20137;-63
2022/05/05 10:47:05;;;;;;;1.50;1.40;;;;;;;27.75;28.36;91328.84;5010600;28;20033;-63
2022/05/05 10:49:33;;;;;;;9.52;3.17;;;;;;;28.87;29.15;91327.22;5010800;28;20099;-67
2022/05/05 10:52:10;;;;;;;2.30;1.77;;;;;;;28.11;29.35;91327.72;5010814;28;20412;-65
2022/05/05 10:54:41;;;;;;;4.68;2.03;;;;;;;26.42;30.85;91323.84;5010888;28;20105;-65
2022/05/05 10:57:25;;;;;;;2.20;1.42;;;;;;;27.40;30.83;91331.84;5011691;28;20017;-64
2022/05/05 11:00:10;;;;;;;12.00;7.93;;;;;;;27.30;29.82;91332.72;5014626;28;20057;-64
2022/05/05 11:02:37;;;;;;;2.33;1.67;;;;;;;27.61;29.50;91339.09;5014228;28;20038;-64
2022/05/05 11:05:24;;;;;;;3.20;1.67;;;;;;;28.46;28.71;91332.81;5014621;28;20034;-64
2022/05/05 11:07:49;;;;;;;4.30;1.45;;;;;;;27.56;28.61;91326.66;5014538;28;20496;-64
2022/05/05 11:10:46;;;;;;;1.85;1.50;;;;;;;26.16;29.31;91338.72;5014574;28;20041;-64
2022/05/05 11:13:38;;;;;;;2.28;1.83;;;;;;;26.67;28.32;91340.09;5014585;28;20113;-64
2022/05/05 11:22:24;;;;;;;2.67;1.50;;;;;;;25.23;30.05;91325.22;5014632;28;20056;-63
2022/05/05 11:24:52;;;;;;;3.53;1.73;;;;;;;25.37;31.40;91340.78;4996826;28;20033;-64
2022/05/05 11:27:19;;;;;;;3.80;1.30;;;;;;;26.92;30.59;91343.47;5015379;28;20060;-65
2022/05/05 11:29:52;;;;;;;4.13;1.35;;;;;;;26.21;31.32;91343.78;5025917;28;20034;-65
2022/05/05 11:32:19;;;;;;;1.40;1.30;;;;;;;29.65;26.37;91332.75;5034531;28;20037;-65
2022/05/05 11:34:45;;;;;;;1.65;1.50;;;;;;;29.22;28.17;91334.19;5034179;28;20479;-65
2022/05/05 11:37:12;;;;;;;5.85;1.92;;;;;;;29.95;26.04;91340.06;5016438;28;20183;-64
2022/05/05 11:39:39;;;;;;;1.63;1.52;;;;;;;27.23;28.40;91333.56;5034074;28;20033;-64
2022/05/05 11:42:07;;;;;;;2.85;1.67;;;;;;;25.52;30.45;91336.09;5034013;28;20060;-65
2022/05/05 11:44:40;;;;;;;2.30;1.67;;;;;;;25.61;29.39;91329.09;5034039;28;20034;-65
2022/05/05 11:47:12;;;;;;;;;;;;;;;25.51;30.51;91334.53;5034723;28;20108;-65
2022/05/05 11:49:50;;;;;;;2.60;2.40;;;;;;;23.39;32.67;91339.63;5033935;28;20461;-64
2022/05/05 11:52:20;;;;;;;4.28;2.85;;;;;;;23.05;33.78;91338.19;5016268;28;20418;-64
2022/05/05 11:54:51;;;;;;;3.25;2.13;;;;;;;24.91;30.62;91336.03;5033796;28;20039;-64
2022/05/05 11:57:38;;;;;;;5.30;3.60;;;;;;;26.18;30.90;91339.09;5033840;28;20046;-64
2022/05/05 12:02:53;;;;;;;134.18;72.75;;;;;;;22.66;33.94;91335.84;5033742;28;20043;-65
2022/05/05 12:05:21;;;;;;;2.30;2.10;;;;;;;22.22;35.67;91336.53;5033620;28;20108;-65
2022/05/05 12:07:47;;;;;;;2.17;1.98;;;;;;;21.98;35.91;91331.59;5033508;28;20037;-64
2022/05/05 12:10:14;;;;;;;1.63;1.50;;;;;;;21.77;36.24;91340.97;5033321;28;20036;-64
2022/05/05 12:12:45;;;;;;;2.47;2.05;;;;;;;21.55;38.38;91341.06;5030252;28;20084;-64
2022/05/05 12:15:11;;;;;;;6.10;1.65;;;;;;;22.12;36.32;91334.50;5033444;28;20048;-65